AQQ10 IFIS: Internet Flight Information System
logo dgac
Miércoles 24 de Julio del 2024

Metar

Buscar por aerodromo o helipuerto
Ingrese nombre de aeródromo, localidad o designador OACI:


METAR del 24-07-2024 a las 03:00 UTC
Para mayor información visite www.meteochile.gob.cl
METAR SCDA 240300Z 18004KT CAVOK 14/11 Q1019
Viento: dirección 180 grados, velocidad 4 nudos
Visibilidad: 10 km o más,
    sin nubes bajo los 5.000 pies o bajo del MSA (Mínimo de Seguridad del Aeródromo),
    sin cumulonimbus, y sin fenómenos de tiempo significativo en el aeródromo o alrededores
Temperatura: 14 °C
Rocío: 11 °C
Humedad_relativa: 82%
Presión: 1019 hPa
SPECI del 24-07-2024 a las 02:37 UTC
Para mayor información visite www.meteochile.gob.cl
SPECI SACO 240237Z 05003KT 290V090 0800 R19/P2000N FG NSC 09/09 Q1014 NOSIG
Viento: dirección 050 grados, velocidad 3 nudos
Viento con dirección variable entre 290 y 090 grados
Visibilidad: 800 metros
Alcance_pista: Pista 19: Alcance visual desde la zona de contacto mayor a 2000 metros
Niebla
Sin nubes bajo los 5000 pies o bajo del MSA (Mínimo de Seguridad del Aeródromo)
Temperatura: 9 °C
Rocío: 9 °C
Humedad_relativa: 100%
Presión: 1014 hPa
No se esperan cambios significativos en las próximas 2 horas
SPECI del 24-07-2024 a las 02:34 UTC
Para mayor información visite www.meteochile.gob.cl
SPECI SACO 240234Z 04004KT 290V060 2500 BR NSC 08/08 Q1014 NOSIG
Viento: dirección 040 grados, velocidad 4 nudos
Viento con dirección variable entre 290 y 060 grados
Visibilidad: 2500 metros
Neblina
Sin nubes bajo los 5000 pies o bajo del MSA (Mínimo de Seguridad del Aeródromo)
Temperatura: 8 °C
Rocío: 8 °C
Humedad_relativa: 100%
Presión: 1014 hPa
No se esperan cambios significativos en las próximas 2 horas
METAR del 24-07-2024 a las 02:30 UTC
Para mayor información visite www.meteochile.gob.cl
METAR SCJO 240230Z AUTO /////KT ///V/// //// // BKN022/// BKN031/// OVC039/// 10/08 Q1021
Nubes: Nublado a 2200 pies sobre el nivel del aeródromo, Tipo de nubes no disponible
Nubes: Nublado a 3100 pies sobre el nivel del aeródromo, Tipo de nubes no disponible
Nubes: Cubierto a 3900 pies sobre el nivel del aeródromo, Tipo de nubes no disponible
Temperatura: 10 °C
Rocío: 8 °C
Humedad_relativa: 87%
Presión: 1021 hPa
SPECI del 24-07-2024 a las 02:16 UTC
Para mayor información visite www.meteochile.gob.cl
SPECI SACO 240216Z 04005KT 5000 BR NSC 09/09 Q1014 NOSIG
Viento: dirección 040 grados, velocidad 5 nudos
Visibilidad: 5000 metros
Neblina
Sin nubes bajo los 5000 pies o bajo del MSA (Mínimo de Seguridad del Aeródromo)
Temperatura: 9 °C
Rocío: 9 °C
Humedad_relativa: 100%
Presión: 1014 hPa
No se esperan cambios significativos en las próximas 2 horas
METAR del 24-07-2024 a las 02:00 UTC
Para mayor información visite www.meteochile.gob.cl
METAR SCIP 240200Z 13016KT 5000 DZ SCT003 OVC006 17/17 Q1020 TEMPO 5000 SHRA
Viento: dirección 130 grados, velocidad 16 nudos
Visibilidad: 5000 metros
LLovizna
Nubes: Nubosidad parcial a 300 pies sobre el nivel del aeródromo
Nubes: Cubierto a 600 pies sobre el nivel del aeródromo
Temperatura: 17 °C
Rocío: 17 °C
Humedad_relativa: 100%
Presión: 1020 hPa
Se esperan cambios en forma temporal en:
Visibilidad: 5000 metros
ChubascosLluvia
METAR del 24-07-2024 a las 02:00 UTC
Para mayor información visite www.meteochile.gob.cl
METAR SCDA 240200Z 18007KT CAVOK 14/11 Q1019
Viento: dirección 180 grados, velocidad 7 nudos
Visibilidad: 10 km o más,
    sin nubes bajo los 5.000 pies o bajo del MSA (Mínimo de Seguridad del Aeródromo),
    sin cumulonimbus, y sin fenómenos de tiempo significativo en el aeródromo o alrededores
Temperatura: 14 °C
Rocío: 11 °C
Humedad_relativa: 82%
Presión: 1019 hPa
METAR del 24-07-2024 a las 02:00 UTC
Para mayor información visite www.meteochile.gob.cl
METAR SCFA 240200Z 20010KT CAVOK 13/11 Q1019 NOSIG
Viento: dirección 200 grados, velocidad 10 nudos
Visibilidad: 10 km o más,
    sin nubes bajo los 5.000 pies o bajo del MSA (Mínimo de Seguridad del Aeródromo),
    sin cumulonimbus, y sin fenómenos de tiempo significativo en el aeródromo o alrededores
Temperatura: 13 °C
Rocío: 11 °C
Humedad_relativa: 88%
Presión: 1019 hPa
No se esperan cambios significativos en las próximas 2 horas
METAR del 24-07-2024 a las 02:00 UTC
Para mayor información visite www.meteochile.gob.cl
METAR SCAR 240200Z 03006KT CAVOK 14/11 Q1019
Viento: dirección 030 grados, velocidad 6 nudos
Visibilidad: 10 km o más,
    sin nubes bajo los 5.000 pies o bajo del MSA (Mínimo de Seguridad del Aeródromo),
    sin cumulonimbus, y sin fenómenos de tiempo significativo en el aeródromo o alrededores
Temperatura: 14 °C
Rocío: 11 °C
Humedad_relativa: 82%
Presión: 1019 hPa
METAR del 24-07-2024 a las 02:00 UTC
Para mayor información visite www.meteochile.gob.cl
METAR SCQP 240200Z 01006KT 350V050 CAVOK 10/08 Q1023
Viento: dirección 010 grados, velocidad 6 nudos
Viento con dirección variable entre 350 y 050 grados
Visibilidad: 10 km o más,
    sin nubes bajo los 5.000 pies o bajo del MSA (Mínimo de Seguridad del Aeródromo),
    sin cumulonimbus, y sin fenómenos de tiempo significativo en el aeródromo o alrededores
Temperatura: 10 °C
Rocío: 8 °C
Humedad_relativa: 87%
Presión: 1023 hPa